Terminal Aerodrome Forecast
Issued by NWS

Home | Current Version | Previous Version | Text Only | Print | Product List | Glossary On
Versions: 1 2 3 4 5 6 7 8 9 10 11 12 13 14 15 16
000
FTUS41 KCAR 251120
TAFHUL
TAF
KHUL 251120Z 2512/2612 19006KT P6SM SCT210
     FM252200 18009KT 5SM -RA OVC050
     FM260300 15008KT 3SM -RA OVC006
     FM260600 14009KT 1SM +RA BR OVC006=

USA.gov is the U.S. government's official web portal to all federal, state and local government web resources and services.